sensor_id;sensor_type;location;lat;lon;timestamp;temperature;humidity
22383;DHT22;11359;45.802;13.530;2023-04-03T00:02:07;15.90;53.00
22383;DHT22;11359;45.802;13.530;2023-04-03T00:04:33;15.90;53.00
22383;DHT22;11359;45.802;13.530;2023-04-03T00:06:58;15.90;53.00
22383;DHT22;11359;45.802;13.530;2023-04-03T00:09:24;15.80;53.00
22383;DHT22;11359;45.802;13.530;2023-04-03T00:11:50;15.80;53.00
22383;DHT22;11359;45.802;13.530;2023-04-03T00:14:16;15.80;53.00
22383;DHT22;11359;45.802;13.530;2023-04-03T00:16:42;15.80;53.00
22383;DHT22;11359;45.802;13.530;2023-04-03T00:19:07;15.80;53.00
22383;DHT22;11359;45.802;13.530;2023-04-03T00:21:33;15.80;53.00
22383;DHT22;11359;45.802;13.530;2023-04-03T00:23:59;15.80;53.00
22383;DHT22;11359;45.802;13.530;2023-04-03T00:26:25;15.80;53.00
22383;DHT22;11359;45.802;13.530;2023-04-03T00:28:50;15.70;53.00
22383;DHT22;11359;45.802;13.530;2023-04-03T00:31:16;15.70;53.00
22383;DHT22;11359;45.802;13.530;2023-04-03T00:33:42;15.70;53.00
22383;DHT22;11359;45.802;13.530;2023-04-03T00:36:09;15.70;53.00
22383;DHT22;11359;45.802;13.530;2023-04-03T00:38:36;15.70;53.00
22383;DHT22;11359;45.802;13.530;2023-04-03T00:41:02;15.70;53.00
22383;DHT22;11359;45.802;13.530;2023-04-03T00:43:27;15.70;53.00
22383;DHT22;11359;45.802;13.530;2023-04-03T00:45:55;15.70;53.00
22383;DHT22;11359;45.802;13.530;2023-04-03T00:48:40;15.70;53.00
22383;DHT22;11359;45.802;13.530;2023-04-03T00:51:09;15.60;53.00
22383;DHT22;11359;45.802;13.530;2023-04-03T00:53:58;15.70;53.00
22383;DHT22;11359;45.802;13.530;2023-04-03T00:56:27;15.60;53.00
22383;DHT22;11359;45.802;13.530;2023-04-03T00:59:32;15.60;53.00
22383;DHT22;11359;45.802;13.530;2023-04-03T01:02:00;15.60;53.00
22383;DHT22;11359;45.802;13.530;2023-04-03T01:07:00;15.60;52.90
22383;DHT22;11359;45.802;13.530;2023-04-03T01:09:26;15.50;52.80
22383;DHT22;11359;45.802;13.530;2023-04-03T01:11:53;15.50;52.80
22383;DHT22;11359;45.802;13.530;2023-04-03T01:14:19;15.50;52.70
22383;DHT22;11359;45.802;13.530;2023-04-03T01:16:54;15.50;52.70
22383;DHT22;11359;45.802;13.530;2023-04-03T01:19:22;15.50;52.70
22383;DHT22;11359;45.802;13.530;2023-04-03T01:21:54;15.50;52.70
22383;DHT22;11359;45.802;13.530;2023-04-03T01:26:53;15.50;52.60
22383;DHT22;11359;45.802;13.530;2023-04-03T01:29:19;15.40;52.50
22383;DHT22;11359;45.802;13.530;2023-04-03T01:31:54;15.40;52.50
22383;DHT22;11359;45.802;13.530;2023-04-03T01:34:20;15.40;52.40
22383;DHT22;11359;45.802;13.530;2023-04-03T01:36:45;15.40;52.40
22383;DHT22;11359;45.802;13.530;2023-04-03T01:39:11;15.40;52.40
22383;DHT22;11359;45.802;13.530;2023-04-03T01:41:37;15.30;52.30
22383;DHT22;11359;45.802;13.530;2023-04-03T01:44:03;15.30;52.30
22383;DHT22;11359;45.802;13.530;2023-04-03T01:46:29;15.30;52.30
22383;DHT22;11359;45.802;13.530;2023-04-03T01:48:55;15.30;52.30
22383;DHT22;11359;45.802;13.530;2023-04-03T01:51:21;15.30;52.30
22383;DHT22;11359;45.802;13.530;2023-04-03T01:53:46;15.20;52.20
22383;DHT22;11359;45.802;13.530;2023-04-03T01:56:12;15.30;52.30
22383;DHT22;11359;45.802;13.530;2023-04-03T01:58:38;15.20;52.20
22383;DHT22;11359;45.802;13.530;2023-04-03T02:01:04;15.20;52.10
22383;DHT22;11359;45.802;13.530;2023-04-03T02:03:30;15.20;52.10
22383;DHT22;11359;45.802;13.530;2023-04-03T02:05:56;15.20;52.20
22383;DHT22;11359;45.802;13.530;2023-04-03T02:08:22;15.20;52.10
22383;DHT22;11359;45.802;13.530;2023-04-03T02:10:48;15.20;52.00
22383;DHT22;11359;45.802;13.530;2023-04-03T02:13:14;15.10;52.00
22383;DHT22;11359;45.802;13.530;2023-04-03T02:15:40;15.10;51.90
22383;DHT22;11359;45.802;13.530;2023-04-03T02:18:06;15.10;51.90
22383;DHT22;11359;45.802;13.530;2023-04-03T02:20:32;15.10;51.90
22383;DHT22;11359;45.802;13.530;2023-04-03T02:22:58;15.10;52.00
22383;DHT22;11359;45.802;13.530;2023-04-03T02:25:24;15.10;51.90
22383;DHT22;11359;45.802;13.530;2023-04-03T02:27:50;15.10;51.90
22383;DHT22;11359;45.802;13.530;2023-04-03T02:30:16;15.00;51.90
22383;DHT22;11359;45.802;13.530;2023-04-03T02:32:42;15.10;51.90
22383;DHT22;11359;45.802;13.530;2023-04-03T02:35:08;15.10;51.80
22383;DHT22;11359;45.802;13.530;2023-04-03T02:37:34;15.00;51.80
22383;DHT22;11359;45.802;13.530;2023-04-03T02:40:00;15.00;51.80
22383;DHT22;11359;45.802;13.530;2023-04-03T02:42:26;15.00;51.70
22383;DHT22;11359;45.802;13.530;2023-04-03T02:44:51;15.00;51.70
22383;DHT22;11359;45.802;13.530;2023-04-03T02:47:17;15.00;51.70
22383;DHT22;11359;45.802;13.530;2023-04-03T02:49:43;14.90;51.60
22383;DHT22;11359;45.802;13.530;2023-04-03T02:52:12;14.90;51.60
22383;DHT22;11359;45.802;13.530;2023-04-03T02:54:38;14.90;51.60
22383;DHT22;11359;45.802;13.530;2023-04-03T02:57:03;14.90;51.50
22383;DHT22;11359;45.802;13.530;2023-04-03T02:59:29;14.90;51.50
22383;DHT22;11359;45.802;13.530;2023-04-03T03:01:55;14.90;51.50
22383;DHT22;11359;45.802;13.530;2023-04-03T03:04:21;14.90;51.50
22383;DHT22;11359;45.802;13.530;2023-04-03T03:06:47;14.80;51.40
22383;DHT22;11359;45.802;13.530;2023-04-03T03:09:13;14.80;51.30
22383;DHT22;11359;45.802;13.530;2023-04-03T03:11:39;14.80;51.30
22383;DHT22;11359;45.802;13.530;2023-04-03T03:14:05;14.80;51.30
22383;DHT22;11359;45.802;13.530;2023-04-03T03:16:30;14.80;51.30
22383;DHT22;11359;45.802;13.530;2023-04-03T03:18:56;14.70;51.10
22383;DHT22;11359;45.802;13.530;2023-04-03T03:21:22;14.70;51.10
22383;DHT22;11359;45.802;13.530;2023-04-03T03:23:47;14.70;51.10
22383;DHT22;11359;45.802;13.530;2023-04-03T03:26:13;14.70;51.00
22383;DHT22;11359;45.802;13.530;2023-04-03T03:28:39;14.60;50.90
22383;DHT22;11359;45.802;13.530;2023-04-03T03:31:06;14.60;50.90
22383;DHT22;11359;45.802;13.530;2023-04-03T03:33:32;14.60;50.90
22383;DHT22;11359;45.802;13.530;2023-04-03T03:35:58;14.60;50.70
22383;DHT22;11359;45.802;13.530;2023-04-03T03:38:24;14.50;50.60
22383;DHT22;11359;45.802;13.530;2023-04-03T03:40:50;14.50;50.70
22383;DHT22;11359;45.802;13.530;2023-04-03T03:43:17;14.50;50.70
22383;DHT22;11359;45.802;13.530;2023-04-03T03:45:43;14.50;50.70
22383;DHT22;11359;45.802;13.530;2023-04-03T03:48:09;14.50;50.70
22383;DHT22;11359;45.802;13.530;2023-04-03T03:50:35;14.40;50.60
22383;DHT22;11359;45.802;13.530;2023-04-03T03:53:01;14.40;50.50
22383;DHT22;11359;45.802;13.530;2023-04-03T03:55:26;14.40;50.40
22383;DHT22;11359;45.802;13.530;2023-04-03T03:57:52;14.40;50.50
22383;DHT22;11359;45.802;13.530;2023-04-03T04:00:18;14.40;50.50
22383;DHT22;11359;45.802;13.530;2023-04-03T04:02:44;14.40;51.00
22383;DHT22;11359;45.802;13.530;2023-04-03T04:05:10;14.40;50.40
22383;DHT22;11359;45.802;13.530;2023-04-03T04:07:36;14.30;50.20
22383;DHT22;11359;45.802;13.530;2023-04-03T04:10:02;14.30;50.20
22383;DHT22;11359;45.802;13.530;2023-04-03T04:12:27;14.30;50.10
22383;DHT22;11359;45.802;13.530;2023-04-03T04:14:53;14.20;50.00
22383;DHT22;11359;45.802;13.530;2023-04-03T04:17:19;14.20;49.90
22383;DHT22;11359;45.802;13.530;2023-04-03T04:19:45;14.20;50.00
22383;DHT22;11359;45.802;13.530;2023-04-03T04:22:11;14.10;49.80
22383;DHT22;11359;45.802;13.530;2023-04-03T04:24:37;14.10;49.80
22383;DHT22;11359;45.802;13.530;2023-04-03T04:27:03;14.10;49.70
22383;DHT22;11359;45.802;13.530;2023-04-03T04:29:28;14.10;49.70
22383;DHT22;11359;45.802;13.530;2023-04-03T04:31:54;14.10;49.60
22383;DHT22;11359;45.802;13.530;2023-04-03T04:34:20;14.10;49.60
22383;DHT22;11359;45.802;13.530;2023-04-03T04:36:45;14.00;49.50
22383;DHT22;11359;45.802;13.530;2023-04-03T04:39:11;14.00;49.40
22383;DHT22;11359;45.802;13.530;2023-04-03T04:41:37;14.00;49.30
22383;DHT22;11359;45.802;13.530;2023-04-03T04:44:02;13.90;49.30
22383;DHT22;11359;45.802;13.530;2023-04-03T04:46:28;13.90;49.30
22383;DHT22;11359;45.802;13.530;2023-04-03T04:48:54;13.90;49.30
22383;DHT22;11359;45.802;13.530;2023-04-03T04:51:20;13.90;49.20
22383;DHT22;11359;45.802;13.530;2023-04-03T04:53:45;13.90;49.20
22383;DHT22;11359;45.802;13.530;2023-04-03T04:56:11;13.80;49.00
22383;DHT22;11359;45.802;13.530;2023-04-03T04:58:37;13.80;48.90
22383;DHT22;11359;45.802;13.530;2023-04-03T05:01:05;13.80;49.40
22383;DHT22;11359;45.802;13.530;2023-04-03T05:03:32;13.80;48.90
22383;DHT22;11359;45.802;13.530;2023-04-03T05:05:58;13.80;48.90
22383;DHT22;11359;45.802;13.530;2023-04-03T05:08:24;13.70;48.80
22383;DHT22;11359;45.802;13.530;2023-04-03T05:10:49;13.70;48.80
22383;DHT22;11359;45.802;13.530;2023-04-03T05:13:15;13.70;48.70
22383;DHT22;11359;45.802;13.530;2023-04-03T05:15:41;13.70;48.60
22383;DHT22;11359;45.802;13.530;2023-04-03T05:18:07;13.70;48.60
22383;DHT22;11359;45.802;13.530;2023-04-03T05:20:33;13.70;48.60
22383;DHT22;11359;45.802;13.530;2023-04-03T05:22:59;13.70;48.70
22383;DHT22;11359;45.802;13.530;2023-04-03T05:25:24;13.60;48.60
22383;DHT22;11359;45.802;13.530;2023-04-03T05:27:50;13.60;48.60
22383;DHT22;11359;45.802;13.530;2023-04-03T05:30:16;13.60;48.40
22383;DHT22;11359;45.802;13.530;2023-04-03T05:32:42;13.60;48.30
22383;DHT22;11359;45.802;13.530;2023-04-03T05:35:09;13.60;48.30
22383;DHT22;11359;45.802;13.530;2023-04-03T05:37:35;13.60;48.30
22383;DHT22;11359;45.802;13.530;2023-04-03T05:40:04;13.60;48.20
22383;DHT22;11359;45.802;13.530;2023-04-03T05:42:30;13.50;48.20
22383;DHT22;11359;45.802;13.530;2023-04-03T05:44:56;13.50;48.20
22383;DHT22;11359;45.802;13.530;2023-04-03T05:47:22;13.50;48.20
22383;DHT22;11359;45.802;13.530;2023-04-03T05:49:48;13.50;48.10
22383;DHT22;11359;45.802;13.530;2023-04-03T05:52:25;13.50;48.10
22383;DHT22;11359;45.802;13.530;2023-04-03T05:54:52;13.50;48.10
22383;DHT22;11359;45.802;13.530;2023-04-03T05:57:19;13.50;48.00
22383;DHT22;11359;45.802;13.530;2023-04-03T05:59:46;13.50;48.10
22383;DHT22;11359;45.802;13.530;2023-04-03T06:02:18;13.50;48.10
22383;DHT22;11359;45.802;13.530;2023-04-03T06:04:45;13.50;48.00
22383;DHT22;11359;45.802;13.530;2023-04-03T06:07:21;13.50;48.00
22383;DHT22;11359;45.802;13.530;2023-04-03T06:09:50;13.50;48.00
22383;DHT22;11359;45.802;13.530;2023-04-03T06:12:19;13.40;47.80
22383;DHT22;11359;45.802;13.530;2023-04-03T06:14:45;13.40;47.80
22383;DHT22;11359;45.802;13.530;2023-04-03T06:17:11;13.50;47.90
22383;DHT22;11359;45.802;13.530;2023-04-03T06:19:37;13.40;47.80
22383;DHT22;11359;45.802;13.530;2023-04-03T06:22:04;13.40;47.90
22383;DHT22;11359;45.802;13.530;2023-04-03T06:24:31;13.40;47.80
22383;DHT22;11359;45.802;13.530;2023-04-03T06:26:57;13.40;47.80
22383;DHT22;11359;45.802;13.530;2023-04-03T06:29:24;13.50;47.70
22383;DHT22;11359;45.802;13.530;2023-04-03T06:31:50;13.40;48.30
22383;DHT22;11359;45.802;13.530;2023-04-03T06:34:16;13.50;47.60
22383;DHT22;11359;45.802;13.530;2023-04-03T06:36:43;13.50;47.70
22383;DHT22;11359;45.802;13.530;2023-04-03T06:39:16;13.50;47.70
22383;DHT22;11359;45.802;13.530;2023-04-03T06:41:43;13.50;47.70
22383;DHT22;11359;45.802;13.530;2023-04-03T06:44:09;13.50;47.70
22383;DHT22;11359;45.802;13.530;2023-04-03T06:46:37;13.50;47.60
22383;DHT22;11359;45.802;13.530;2023-04-03T06:49:04;13.50;47.60
22383;DHT22;11359;45.802;13.530;2023-04-03T06:51:30;13.50;47.50
22383;DHT22;11359;45.802;13.530;2023-04-03T06:53:57;13.50;47.40
22383;DHT22;11359;45.802;13.530;2023-04-03T06:56:24;13.50;47.40
22383;DHT22;11359;45.802;13.530;2023-04-03T06:58:51;13.50;47.40
22383;DHT22;11359;45.802;13.530;2023-04-03T07:01:18;13.50;47.30
22383;DHT22;11359;45.802;13.530;2023-04-03T07:03:45;13.50;47.30
22383;DHT22;11359;45.802;13.530;2023-04-03T07:06:18;13.50;47.30
22383;DHT22;11359;45.802;13.530;2023-04-03T07:08:44;13.50;47.30
22383;DHT22;11359;45.802;13.530;2023-04-03T07:11:11;13.50;47.30
22383;DHT22;11359;45.802;13.530;2023-04-03T07:13:38;13.60;47.40
22383;DHT22;11359;45.802;13.530;2023-04-03T07:16:04;13.60;47.40
22383;DHT22;11359;45.802;13.530;2023-04-03T07:18:34;13.60;47.30
22383;DHT22;11359;45.802;13.530;2023-04-03T07:20:59;13.60;47.30
22383;DHT22;11359;45.802;13.530;2023-04-03T07:23:25;13.70;47.40
22383;DHT22;11359;45.802;13.530;2023-04-03T07:25:52;13.70;47.20
22383;DHT22;11359;45.802;13.530;2023-04-03T07:28:20;13.70;47.20
22383;DHT22;11359;45.802;13.530;2023-04-03T07:30:48;13.70;47.10
22383;DHT22;11359;45.802;13.530;2023-04-03T07:33:15;13.70;46.90
22383;DHT22;11359;45.802;13.530;2023-04-03T07:35:42;13.70;46.90
22383;DHT22;11359;45.802;13.530;2023-04-03T07:38:09;13.80;47.10
22383;DHT22;11359;45.802;13.530;2023-04-03T07:40:35;13.80;47.10
22383;DHT22;11359;45.802;13.530;2023-04-03T07:43:01;13.80;46.90
22383;DHT22;11359;45.802;13.530;2023-04-03T07:45:28;13.80;46.80
22383;DHT22;11359;45.802;13.530;2023-04-03T07:47:54;13.80;46.80
22383;DHT22;11359;45.802;13.530;2023-04-03T07:50:20;13.80;46.80
22383;DHT22;11359;45.802;13.530;2023-04-03T07:52:46;13.90;46.70
22383;DHT22;11359;45.802;13.530;2023-04-03T07:55:12;13.90;46.70
22383;DHT22;11359;45.802;13.530;2023-04-03T07:57:37;13.90;46.70
22383;DHT22;11359;45.802;13.530;2023-04-03T08:00:04;13.90;46.70
22383;DHT22;11359;45.802;13.530;2023-04-03T08:02:30;14.00;46.70
22383;DHT22;11359;45.802;13.530;2023-04-03T08:04:58;14.00;46.60
22383;DHT22;11359;45.802;13.530;2023-04-03T08:07:24;14.00;46.50
22383;DHT22;11359;45.802;13.530;2023-04-03T08:09:49;14.00;46.50
22383;DHT22;11359;45.802;13.530;2023-04-03T08:12:16;14.10;46.50
22383;DHT22;11359;45.802;13.530;2023-04-03T08:14:42;14.10;46.30
22383;DHT22;11359;45.802;13.530;2023-04-03T08:17:08;14.10;46.30
22383;DHT22;11359;45.802;13.530;2023-04-03T08:19:37;14.10;46.20
22383;DHT22;11359;45.802;13.530;2023-04-03T08:22:03;14.10;46.10
22383;DHT22;11359;45.802;13.530;2023-04-03T08:24:30;14.20;46.00
22383;DHT22;11359;45.802;13.530;2023-04-03T08:26:56;14.20;46.00
22383;DHT22;11359;45.802;13.530;2023-04-03T08:29:22;14.20;46.00
22383;DHT22;11359;45.802;13.530;2023-04-03T08:31:49;14.20;46.00
22383;DHT22;11359;45.802;13.530;2023-04-03T08:34:16;14.30;45.90
22383;DHT22;11359;45.802;13.530;2023-04-03T08:36:42;14.30;45.80
22383;DHT22;11359;45.802;13.530;2023-04-03T08:39:07;14.30;45.80
22383;DHT22;11359;45.802;13.530;2023-04-03T08:41:34;14.30;45.80
22383;DHT22;11359;45.802;13.530;2023-04-03T08:49:50;14.40;45.70
22383;DHT22;11359;45.802;13.530;2023-04-03T08:52:47;14.40;45.60
22383;DHT22;11359;45.802;13.530;2023-04-03T08:57:41;14.50;45.60
22383;DHT22;11359;45.802;13.530;2023-04-03T09:00:21;14.50;45.30
22383;DHT22;11359;45.802;13.530;2023-04-03T09:02:55;14.60;45.30
22383;DHT22;11359;45.802;13.530;2023-04-03T09:05:43;14.60;45.30
22383;DHT22;11359;45.802;13.530;2023-04-03T09:11:27;14.60;45.20
22383;DHT22;11359;45.802;13.530;2023-04-03T09:17:04;14.70;45.10
22383;DHT22;11359;45.802;13.530;2023-04-03T09:19:40;14.70;44.90
22383;DHT22;11359;45.802;13.530;2023-04-03T09:22:18;14.80;44.70
22383;DHT22;11359;45.802;13.530;2023-04-03T09:24:48;14.80;44.50
22383;DHT22;11359;45.802;13.530;2023-04-03T09:27:15;14.80;44.50
22383;DHT22;11359;45.802;13.530;2023-04-03T09:29:43;14.90;44.50
22383;DHT22;11359;45.802;13.530;2023-04-03T09:32:31;14.90;44.50
22383;DHT22;11359;45.802;13.530;2023-04-03T09:35:01;14.90;44.40
22383;DHT22;11359;45.802;13.530;2023-04-03T09:37:40;14.90;44.40
22383;DHT22;11359;45.802;13.530;2023-04-03T09:43:09;15.00;44.30
22383;DHT22;11359;45.802;13.530;2023-04-03T09:45:45;15.00;44.10
22383;DHT22;11359;45.802;13.530;2023-04-03T09:53:47;15.10;44.00
22383;DHT22;11359;45.802;13.530;2023-04-03T09:58:43;15.10;44.10
22383;DHT22;11359;45.802;13.530;2023-04-03T10:01:29;15.20;44.10
22383;DHT22;11359;45.802;13.530;2023-04-03T10:04:06;15.20;44.00
22383;DHT22;11359;45.802;13.530;2023-04-03T10:06:35;15.20;44.00
22383;DHT22;11359;45.802;13.530;2023-04-03T10:09:05;15.30;44.00
22383;DHT22;11359;45.802;13.530;2023-04-03T10:11:31;15.30;43.80
22383;DHT22;11359;45.802;13.530;2023-04-03T10:14:00;15.30;43.80
22383;DHT22;11359;45.802;13.530;2023-04-03T10:30:20;15.50;43.30
22383;DHT22;11359;45.802;13.530;2023-04-03T10:35:42;15.60;43.20
22383;DHT22;11359;45.802;13.530;2023-04-03T10:38:20;15.60;43.10
22383;DHT22;11359;45.802;13.530;2023-04-03T10:46:13;15.70;42.70
22383;DHT22;11359;45.802;13.530;2023-04-03T10:51:51;15.70;42.60
22383;DHT22;11359;45.802;13.530;2023-04-03T10:54:29;15.70;42.30
22383;DHT22;11359;45.802;13.530;2023-04-03T10:57:05;15.80;42.40
22383;DHT22;11359;45.802;13.530;2023-04-03T10:59:44;15.80;42.50
22383;DHT22;11359;45.802;13.530;2023-04-03T11:02:24;15.80;42.40
22383;DHT22;11359;45.802;13.530;2023-04-03T11:04:55;15.80;42.20
22383;DHT22;11359;45.802;13.530;2023-04-03T11:07:26;15.80;42.30
22383;DHT22;11359;45.802;13.530;2023-04-03T11:09:56;15.90;42.40
22383;DHT22;11359;45.802;13.530;2023-04-03T11:15:00;15.90;42.20
22383;DHT22;11359;45.802;13.530;2023-04-03T11:17:33;16.00;42.20
22383;DHT22;11359;45.802;13.530;2023-04-03T11:20:06;16.00;42.00
22383;DHT22;11359;45.802;13.530;2023-04-03T11:22:45;16.00;41.90
22383;DHT22;11359;45.802;13.530;2023-04-03T11:27:43;16.00;41.80
22383;DHT22;11359;45.802;13.530;2023-04-03T11:35:56;16.10;41.70
22383;DHT22;11359;45.802;13.530;2023-04-03T11:38:36;16.10;41.50
22383;DHT22;11359;45.802;13.530;2023-04-03T11:41:06;16.10;41.50
22383;DHT22;11359;45.802;13.530;2023-04-03T11:43:33;16.20;41.40
22383;DHT22;11359;45.802;13.530;2023-04-03T11:46:01;16.20;41.30
22383;DHT22;11359;45.802;13.530;2023-04-03T11:50:56;16.20;41.00
22383;DHT22;11359;45.802;13.530;2023-04-03T11:56:00;16.30;41.00
22383;DHT22;11359;45.802;13.530;2023-04-03T11:58:34;16.30;41.00
22383;DHT22;11359;45.802;13.530;2023-04-03T12:01:01;16.30;40.80
22383;DHT22;11359;45.802;13.530;2023-04-03T12:17:12;16.40;40.50
22383;DHT22;11359;45.802;13.530;2023-04-03T12:27:17;16.60;40.10
22383;DHT22;11359;45.802;13.530;2023-04-03T12:32:46;16.60;39.80
22383;DHT22;11359;45.802;13.530;2023-04-03T12:40:45;16.70;39.60
22383;DHT22;11359;45.802;13.530;2023-04-03T12:43:49;16.70;39.60
22383;DHT22;11359;45.802;13.530;2023-04-03T12:46:23;16.70;39.50
22383;DHT22;11359;45.802;13.530;2023-04-03T12:48:55;16.70;39.40
22383;DHT22;11359;45.802;13.530;2023-04-03T12:51:39;16.80;39.10
22383;DHT22;11359;45.802;13.530;2023-04-03T12:54:32;16.80;39.20
22383;DHT22;11359;45.802;13.530;2023-04-03T12:57:19;16.80;39.20
22383;DHT22;11359;45.802;13.530;2023-04-03T12:59:45;16.80;39.00
22383;DHT22;11359;45.802;13.530;2023-04-03T13:02:22;16.80;39.10
22383;DHT22;11359;45.802;13.530;2023-04-03T13:04:49;16.90;39.00
22383;DHT22;11359;45.802;13.530;2023-04-03T13:07:36;16.90;39.00
22383;DHT22;11359;45.802;13.530;2023-04-03T13:12:34;16.90;38.70
22383;DHT22;11359;45.802;13.530;2023-04-03T13:15:23;16.90;38.50
22383;DHT22;11359;45.802;13.530;2023-04-03T13:17:50;17.00;39.30
22383;DHT22;11359;45.802;13.530;2023-04-03T13:20:25;17.00;38.40
22383;DHT22;11359;45.802;13.530;2023-04-03T13:23:05;17.00;38.30
22383;DHT22;11359;45.802;13.530;2023-04-03T13:25:36;17.00;38.30
22383;DHT22;11359;45.802;13.530;2023-04-03T13:28:09;17.00;38.20
22383;DHT22;11359;45.802;13.530;2023-04-03T13:30:38;17.00;38.30
22383;DHT22;11359;45.802;13.530;2023-04-03T13:33:18;17.10;38.20
22383;DHT22;11359;45.802;13.530;2023-04-03T13:35:44;17.10;38.30
22383;DHT22;11359;45.802;13.530;2023-04-03T13:40:55;17.20;38.30
22383;DHT22;11359;45.802;13.530;2023-04-03T13:43:30;17.20;38.40
22383;DHT22;11359;45.802;13.530;2023-04-03T13:46:44;17.20;38.30
22383;DHT22;11359;45.802;13.530;2023-04-03T13:48:48;17.30;38.10
22383;DHT22;11359;45.802;13.530;2023-04-03T13:56:30;17.30;37.90
22383;DHT22;11359;45.802;13.530;2023-04-03T13:59:00;17.40;37.90
22383;DHT22;11359;45.802;13.530;2023-04-03T14:01:38;17.40;38.00
22383;DHT22;11359;45.802;13.530;2023-04-03T14:04:25;17.40;37.90
22383;DHT22;11359;45.802;13.530;2023-04-03T14:06:53;17.50;37.80
22383;DHT22;11359;45.802;13.530;2023-04-03T14:09:21;17.50;37.70
22383;DHT22;11359;45.802;13.530;2023-04-03T14:11:49;17.50;37.70
22383;DHT22;11359;45.802;13.530;2023-04-03T14:14:29;17.60;37.50
22383;DHT22;11359;45.802;13.530;2023-04-03T14:16:58;17.60;37.50
22383;DHT22;11359;45.802;13.530;2023-04-03T14:19:35;17.60;37.40
22383;DHT22;11359;45.802;13.530;2023-04-03T14:22:13;17.60;37.30
22383;DHT22;11359;45.802;13.530;2023-04-03T14:24:39;17.70;37.40
22383;DHT22;11359;45.802;13.530;2023-04-03T14:27:17;17.70;37.30
22383;DHT22;11359;45.802;13.530;2023-04-03T14:29:43;17.80;37.20
22383;DHT22;11359;45.802;13.530;2023-04-03T14:32:14;17.80;37.30
22383;DHT22;11359;45.802;13.530;2023-04-03T14:34:42;17.80;37.30
22383;DHT22;11359;45.802;13.530;2023-04-03T14:37:14;17.90;38.00
22383;DHT22;11359;45.802;13.530;2023-04-03T14:39:41;17.90;37.30
22383;DHT22;11359;45.802;13.530;2023-04-03T14:42:13;17.90;37.20
22383;DHT22;11359;45.802;13.530;2023-04-03T14:44:39;17.90;37.10
22383;DHT22;11359;45.802;13.530;2023-04-03T14:47:05;18.00;37.10
22383;DHT22;11359;45.802;13.530;2023-04-03T14:49:31;18.00;37.10
22383;DHT22;11359;45.802;13.530;2023-04-03T14:51:57;18.00;36.80
22383;DHT22;11359;45.802;13.530;2023-04-03T14:54:24;18.00;36.70
22383;DHT22;11359;45.802;13.530;2023-04-03T14:56:55;18.00;36.60
22383;DHT22;11359;45.802;13.530;2023-04-03T14:59:22;18.10;36.50
22383;DHT22;11359;45.802;13.530;2023-04-03T15:01:49;18.10;36.50
22383;DHT22;11359;45.802;13.530;2023-04-03T15:04:15;18.10;36.50
22383;DHT22;11359;45.802;13.530;2023-04-03T15:06:41;18.10;36.50
22383;DHT22;11359;45.802;13.530;2023-04-03T15:09:23;18.10;36.30
22383;DHT22;11359;45.802;13.530;2023-04-03T15:11:50;18.10;36.30
22383;DHT22;11359;45.802;13.530;2023-04-03T15:14:16;18.10;36.00
22383;DHT22;11359;45.802;13.530;2023-04-03T15:16:46;18.10;35.90
22383;DHT22;11359;45.802;13.530;2023-04-03T15:19:12;18.20;36.00
22383;DHT22;11359;45.802;13.530;2023-04-03T15:21:38;18.10;35.90
22383;DHT22;11359;45.802;13.530;2023-04-03T15:24:05;18.10;35.70
22383;DHT22;11359;45.802;13.530;2023-04-03T15:26:31;18.10;35.70
22383;DHT22;11359;45.802;13.530;2023-04-03T15:29:01;18.10;35.60
22383;DHT22;11359;45.802;13.530;2023-04-03T15:31:27;18.10;35.60
22383;DHT22;11359;45.802;13.530;2023-04-03T15:33:53;18.20;35.50
22383;DHT22;11359;45.802;13.530;2023-04-03T15:36:18;18.20;35.60
22383;DHT22;11359;45.802;13.530;2023-04-03T15:38:44;18.30;35.90
22383;DHT22;11359;45.802;13.530;2023-04-03T15:41:10;18.50;36.30
22383;DHT22;11359;45.802;13.530;2023-04-03T15:43:36;18.70;36.60
22383;DHT22;11359;45.802;13.530;2023-04-03T15:46:03;18.90;36.60
22383;DHT22;11359;45.802;13.530;2023-04-03T15:48:29;19.20;36.20
22383;DHT22;11359;45.802;13.530;2023-04-03T15:50:56;19.60;36.20
22383;DHT22;11359;45.802;13.530;2023-04-03T15:53:22;19.80;35.70
22383;DHT22;11359;45.802;13.530;2023-04-03T15:55:47;20.00;35.00
22383;DHT22;11359;45.802;13.530;2023-04-03T15:58:13;20.10;34.50
22383;DHT22;11359;45.802;13.530;2023-04-03T16:00:39;20.30;34.40
22383;DHT22;11359;45.802;13.530;2023-04-03T16:03:11;20.40;34.20
22383;DHT22;11359;45.802;13.530;2023-04-03T16:05:39;20.60;34.10
22383;DHT22;11359;45.802;13.530;2023-04-03T16:08:06;20.80;34.10
22383;DHT22;11359;45.802;13.530;2023-04-03T16:10:33;21.00;34.00
22383;DHT22;11359;45.802;13.530;2023-04-03T16:13:00;21.20;33.90
22383;DHT22;11359;45.802;13.530;2023-04-03T16:15:26;21.40;33.50
22383;DHT22;11359;45.802;13.530;2023-04-03T16:17:53;21.70;33.20
22383;DHT22;11359;45.802;13.530;2023-04-03T16:20:19;21.80;32.80
22383;DHT22;11359;45.802;13.530;2023-04-03T16:22:47;22.00;32.60
22383;DHT22;11359;45.802;13.530;2023-04-03T16:25:14;22.20;32.50
22383;DHT22;11359;45.802;13.530;2023-04-03T16:27:40;22.30;32.00
22383;DHT22;11359;45.802;13.530;2023-04-03T16:30:07;22.20;31.60
22383;DHT22;11359;45.802;13.530;2023-04-03T16:32:35;22.10;30.80
22383;DHT22;11359;45.802;13.530;2023-04-03T16:35:02;21.90;30.60
22383;DHT22;11359;45.802;13.530;2023-04-03T16:37:28;21.60;30.40
22383;DHT22;11359;45.802;13.530;2023-04-03T16:39:53;21.30;30.40
22383;DHT22;11359;45.802;13.530;2023-04-03T16:42:19;21.00;30.20
22383;DHT22;11359;45.802;13.530;2023-04-03T16:44:45;20.70;30.20
22383;DHT22;11359;45.802;13.530;2023-04-03T16:47:12;20.50;30.50
22383;DHT22;11359;45.802;13.530;2023-04-03T16:49:39;20.20;30.60
22383;DHT22;11359;45.802;13.530;2023-04-03T16:52:05;20.00;30.50
22383;DHT22;11359;45.802;13.530;2023-04-03T16:54:32;19.70;30.90
22383;DHT22;11359;45.802;13.530;2023-04-03T16:56:58;19.50;30.90
22383;DHT22;11359;45.802;13.530;2023-04-03T16:59:24;19.40;31.10
22383;DHT22;11359;45.802;13.530;2023-04-03T17:01:50;19.30;31.30
22383;DHT22;11359;45.802;13.530;2023-04-03T17:04:16;19.10;31.40
22383;DHT22;11359;45.802;13.530;2023-04-03T17:06:42;19.00;31.50
22383;DHT22;11359;45.802;13.530;2023-04-03T17:09:07;18.90;31.50
22383;DHT22;11359;45.802;13.530;2023-04-03T17:11:35;18.80;31.50
22383;DHT22;11359;45.802;13.530;2023-04-03T17:14:01;18.70;31.60
22383;DHT22;11359;45.802;13.530;2023-04-03T17:16:27;18.60;31.60